This is the latest recevied weather packets stored in our database for station/object DB0GIS-11. If no packets are shown the sender has not sent any weather packets the latest 10 day(s).
| Time | Temp. | Humidity | Pressure | Rain* | Wind** | Luminosity | Snow |
|---|---|---|---|---|---|---|---|
| 1778126267 | 8.33° C | 10% | 1007.3 hPa | 0 mm | - | - | - |
| 1778125637 | 8.33° C | 10% | 1007 hPa | 0 mm | - | - | - |
| 1778120283 | 8.89° C | 10% | 1006.7 hPa | 0 mm | - | - | - |
| 1778119685 | 8.89° C | 10% | 1006.6 hPa | 0 mm | - | - | - |
| 1778118440 | 8.89° C | 10% | 1006.5 hPa | 0 mm | - | - | - |
| 1778117248 | 8.89° C | 10% | 1006.4 hPa | 0 mm | - | - | - |
| 1778111839 | 8.89° C | 10% | 1005.9 hPa | 0 mm | - | - | - |
| 1778109438 | 9.44° C | 10% | 1005.8 hPa | 0 mm | - | - | - |
| 1778101641 | 10.56° C | 10% | 1004.9 hPa | 0 mm | - | - | - |
| 1778097448 | 10.56° C | 10% | 1004.2 hPa | 0 mm | - | - | - |
| 1778094444 | 11.11° C | 10% | 1003.7 hPa | 0 mm | - | - | - |
| 1778093840 | 11.11° C | 10% | 1003.7 hPa | 0 mm | - | - | - |
| 1778090241 | 13.33° C | 10% | 1002.9 hPa | 0 mm | - | - | - |
| 1778089085 | 13.33° C | 10% | 1002.5 hPa | 0 mm | - | - | - |
| 1778084852 | 14.44° C | 15% | 1002.2 hPa | 0 mm | - | - | - |
| 1778081863 | 15.56° C | 26% | 1002 hPa | 0 mm | - | - | - |
| 1778078244 | 16.11° C | 40% | 1001.9 hPa | 0 mm | - | - | - |
| 1778074068 | 16.67° C | 44% | 1001.6 hPa | 0 mm | - | - | - |
| 1778072241 | 17.22° C | 45% | 1001.6 hPa | 0 mm | - | - | - |
| 1778071641 | 17.22° C | 42% | 1001.7 hPa | 0 mm | - | - | - |
| 1778069843 | 16.67° C | 32% | 1001.6 hPa | 0 mm | - | - | - |
| 1778059642 | 15.56° C | 10% | 1001.7 hPa | 0 mm | - | - | - |
| 1778056686 | 14.44° C | 10% | 1001.5 hPa | 0 mm | - | - | - |
| 1778050650 | 13.33° C | 10% | 1001.3 hPa | 0 mm | - | - | - |
| 1778049435 | 13.33° C | 10% | 1001.2 hPa | 0 mm | - | - | - |
* Rain latest hour (hover to see other rain measurements)
** Current wind speed in m/s (hover to see current wind gust speed)